Time;durP1;ratioP1;P1;durP2;ratioP2;P2;SDS_P1;SDS_P2;PMS_P1;PMS_P2;Temp;Humidity;BMP_temperature;BMP_pressure;BME280_temperature;BME280_humidity;BME280_pressure;Samples;Min_cycle;Max_cycle;Signal;HPM_P1;HPM_P2
2021/07/23 00:01:20;;;;;;;5.95;4.55;;;21.00;88.80;;;;;;5038781;28;20071;-67
2021/07/23 00:03:48;;;;;;;9.43;5.68;;;21.00;88.50;;;;;;5057025;28;20036;-68
2021/07/23 00:06:14;;;;;;;9.60;5.22;;;21.00;88.80;;;;;;5039095;28;20024;-67
2021/07/23 00:08:39;;;;;;;6.63;5.25;;;20.90;88.90;;;;;;5056158;28;20056;-67
2021/07/23 00:11:05;;;;;;;7.68;5.50;;;21.00;89.10;;;;;;5038905;28;20124;-67
2021/07/23 00:13:31;;;;;;;8.05;5.45;;;21.00;89.10;;;;;;5055078;28;20029;-67
2021/07/23 00:15:56;;;;;;;7.05;5.38;;;21.00;89.20;;;;;;5053467;28;20154;-67
2021/07/23 00:18:22;;;;;;;7.85;5.30;;;20.90;89.30;;;;;;5035356;28;20112;-72
2021/07/23 00:20:48;;;;;;;6.35;4.65;;;20.90;89.20;;;;;;5035714;28;20037;-67
2021/07/23 00:23:14;;;;;;;9.25;5.20;;;20.80;89.70;;;;;;5053540;28;20061;-67
2021/07/23 00:25:39;;;;;;;14.95;5.45;;;20.80;89.90;;;;;;5052696;28;20037;-66
2021/07/23 00:28:05;;;;;;;7.85;5.57;;;20.80;90.00;;;;;;5053576;28;20036;-67
2021/07/23 00:30:31;;;;;;;8.98;5.13;;;20.80;90.10;;;;;;5034992;28;20032;-67
2021/07/23 00:32:56;;;;;;;9.13;5.28;;;20.80;90.20;;;;;;5053235;28;20043;-67
2021/07/23 00:35:22;;;;;;;8.77;5.47;;;20.90;90.20;;;;;;5035600;28;20474;-67
2021/07/23 00:37:48;;;;;;;7.97;5.60;;;20.70;90.30;;;;;;5053370;28;20592;-66
2021/07/23 00:40:14;;;;;;;8.77;6.05;;;20.70;90.40;;;;;;5035331;28;20093;-67
2021/07/23 00:42:41;;;;;;;9.52;5.20;;;20.70;90.40;;;;;;5052704;28;20171;-67
2021/07/23 00:45:07;;;;;;;7.72;5.50;;;20.60;90.60;;;;;;5035615;28;20463;-67
2021/07/23 00:47:35;;;;;;;9.38;5.65;;;20.60;90.60;;;;;;5052505;28;20540;-67
2021/07/23 00:50:00;;;;;;;8.10;4.95;;;20.70;90.80;;;;;;5053452;28;20128;-68
2021/07/23 00:52:27;;;;;;;7.43;5.10;;;20.70;90.80;;;;;;5034861;28;20021;-68
2021/07/23 00:54:53;;;;;;;5.93;5.22;;;20.70;90.80;;;;;;5046905;28;20053;-68
2021/07/23 00:57:19;;;;;;;9.10;6.00;;;20.70;90.90;;;;;;5071639;28;20036;-67
2021/07/23 00:59:45;;;;;;;7.03;4.60;;;20.60;90.90;;;;;;5072450;28;20021;-67
2021/07/23 01:02:11;;;;;;;8.02;5.32;;;20.50;91.20;;;;;;5071711;28;20133;-68
2021/07/23 01:04:38;;;;;;;7.85;5.63;;;20.50;91.30;;;;;;5071767;28;20029;-68
2021/07/23 01:07:04;;;;;;;8.15;5.43;;;20.50;91.30;;;;;;5072956;28;20028;-67
2021/07/23 01:09:31;;;;;;;8.45;6.05;;;20.60;91.40;;;;;;5072930;28;20188;-69
2021/07/23 01:11:57;;;;;;;10.25;5.55;;;20.50;91.50;;;;;;5072622;28;20029;-67
2021/07/23 01:14:24;;;;;;;8.00;4.82;;;20.50;91.40;;;;;;5071867;28;20482;-67
2021/07/23 01:16:50;;;;;;;9.27;5.30;;;20.50;91.50;;;;;;5073593;28;20044;-69
2021/07/23 01:19:17;;;;;;;9.18;5.80;;;20.50;91.60;;;;;;5066432;28;20390;-69
2021/07/23 01:21:48;;;;;;;8.82;5.75;;;20.40;91.60;;;;;;5052332;28;20037;-67
2021/07/23 01:24:14;;;;;;;7.60;5.20;;;20.40;91.70;;;;;;5052203;28;20115;-67
2021/07/23 01:26:41;;;;;;;13.57;5.43;;;20.40;91.80;;;;;;5050981;28;20036;-69
2021/07/23 01:29:07;;;;;;;11.75;5.78;;;20.40;92.10;;;;;;5052976;28;20455;-67
2021/07/23 01:31:32;;;;;;;8.23;5.53;;;20.30;92.30;;;;;;5051305;28;20198;-66
2021/07/23 01:33:58;;;;;;;15.10;6.47;;;20.30;92.20;;;;;;5052893;28;20048;-67
2021/07/23 01:36:25;;;;;;;9.13;4.72;;;20.40;92.20;;;;;;5050856;28;20060;-67
2021/07/23 01:38:54;;;;;;;9.93;6.47;;;20.40;92.40;;;;;;5051338;28;20482;-67
2021/07/23 01:41:21;;;;;;;9.73;5.93;;;20.30;92.40;;;;;;5050805;28;20041;-66
2021/07/23 01:43:47;;;;;;;14.95;5.25;;;20.30;92.60;;;;;;5050133;28;20029;-68
2021/07/23 01:46:12;;;;;;;15.85;5.85;;;20.20;92.70;;;;;;5052172;28;20032;-67
2021/07/23 01:48:38;;;;;;;10.55;5.55;;;20.20;92.80;;;;;;5050220;28;20029;-66
2021/07/23 01:51:04;;;;;;;8.63;5.47;;;20.10;93.00;;;;;;5051452;28;20067;-67
2021/07/23 01:53:29;;;;;;;8.10;5.90;;;20.10;93.10;;;;;;5051025;28;20033;-67
2021/07/23 01:55:55;;;;;;;12.98;6.60;;;20.10;93.10;;;;;;5050367;28;20041;-67
2021/07/23 01:58:20;;;;;;;8.93;5.78;;;20.00;93.30;;;;;;5051850;28;20423;-67
2021/07/23 02:00:46;;;;;;;11.15;5.78;;;20.00;93.30;;;;;;5049648;28;20416;-67
2021/07/23 02:03:12;;;;;;;9.38;6.40;;;20.00;93.30;;;;;;5051372;28;20096;-67
2021/07/23 02:05:37;;;;;;;6.47;4.93;;;20.00;93.50;;;;;;5050888;28;20401;-67
2021/07/23 02:08:03;;;;;;;11.35;5.60;;;20.00;93.70;;;;;;5051570;28;20068;-67
2021/07/23 02:10:29;;;;;;;7.13;5.35;;;20.00;93.70;;;;;;5050866;28;20033;-71
2021/07/23 02:12:56;;;;;;;10.20;5.63;;;20.00;93.80;;;;;;5050457;28;20031;-66
2021/07/23 02:15:22;;;;;;;10.52;5.55;;;19.90;93.80;;;;;;5049834;28;20036;-67
2021/07/23 02:17:47;;;;;;;8.52;6.00;;;19.90;94.00;;;;;;5051113;28;20253;-67
2021/07/23 02:20:13;;;;;;;7.97;5.35;;;19.90;94.00;;;;;;5051065;28;20025;-67
2021/07/23 02:22:39;;;;;;;9.43;5.88;;;19.90;94.20;;;;;;5050745;28;20118;-67
2021/07/23 02:25:05;;;;;;;8.98;6.10;;;19.90;94.00;;;;;;5050853;28;20125;-68
2021/07/23 02:27:34;;;;;;;9.25;6.03;;;19.90;94.10;;;;;;5049320;28;20056;-68
2021/07/23 02:30:00;;;;;;;8.10;6.03;;;19.80;94.20;;;;;;5050022;28;20036;-68
2021/07/23 02:32:25;;;;;;;8.57;6.03;;;19.80;94.30;;;;;;5051365;28;20427;-67
2021/07/23 02:34:51;;;;;;;9.00;5.72;;;19.80;94.50;;;;;;5050256;28;20036;-67
2021/07/23 02:37:17;;;;;;;9.13;5.53;;;19.80;94.60;;;;;;5050716;28;20414;-67
2021/07/23 02:39:42;;;;;;;10.82;6.65;;;19.80;94.50;;;;;;5050649;28;20097;-67
2021/07/23 02:42:08;;;;;;;8.60;5.38;;;19.80;94.50;;;;;;5051017;28;20036;-67
2021/07/23 02:44:33;;;;;;;9.70;4.90;;;19.80;94.60;;;;;;5049076;28;20028;-68
2021/07/23 02:46:59;;;;;;;11.07;6.03;;;19.80;94.60;;;;;;5051210;28;20025;-66
2021/07/23 02:49:25;;;;;;;8.52;5.32;;;19.80;94.60;;;;;;5051051;28;20021;-67
2021/07/23 02:51:50;;;;;;;7.40;6.05;;;19.80;94.60;;;;;;5049093;28;20123;-66
2021/07/23 02:54:16;;;;;;;10.23;5.85;;;19.70;94.70;;;;;;5048250;28;20137;-67
2021/07/23 02:56:42;;;;;;;7.13;5.63;;;19.80;94.70;;;;;;5030382;28;20033;-69
2021/07/23 02:59:07;;;;;;;8.07;6.60;;;19.50;94.90;;;;;;5013419;28;20118;-66
2021/07/23 03:01:33;;;;;;;8.02;5.68;;;19.50;95.10;;;;;;5030061;28;20127;-66
2021/07/23 03:03:59;;;;;;;7.07;5.45;;;19.60;95.10;;;;;;5013760;28;20037;-67
2021/07/23 03:06:25;;;;;;;8.50;6.20;;;19.40;95.30;;;;;;5031049;28;20180;-66
2021/07/23 03:08:50;;;;;;;9.75;6.10;;;19.50;95.30;;;;;;5013023;28;20243;-66
2021/07/23 03:11:16;;;;;;;10.35;6.03;;;19.50;95.40;;;;;;5031006;28;20033;-66
2021/07/23 03:13:41;;;;;;;20.30;6.15;;;19.40;95.50;;;;;;5030091;28;20336;-67
2021/07/23 03:16:16;;;;;;;10.38;6.00;;;19.40;95.60;;;;;;5013357;28;20344;-67
2021/07/23 03:18:44;;;;;;;10.02;5.47;;;19.30;95.70;;;;;;5030367;28;20037;-67
2021/07/23 03:21:10;;;;;;;9.95;5.95;;;19.40;95.70;;;;;;5031119;28;20495;-67
2021/07/23 03:23:36;;;;;;;8.07;6.03;;;19.40;95.60;;;;;;5030857;28;20033;-66
2021/07/23 03:26:08;;;;;;;9.43;6.80;;;19.40;95.70;;;;;;5012798;28;20029;-67
2021/07/23 03:28:33;;;;;;;11.77;6.10;;;19.30;95.80;;;;;;5012270;28;20049;-69
2021/07/23 03:30:59;;;;;;;21.85;6.55;;;19.30;96.00;;;;;;5030683;28;20115;-66
2021/07/23 03:33:25;;;;;;;8.73;7.00;;;19.20;96.20;;;;;;5030709;28;20087;-66
2021/07/23 03:35:51;;;;;;;7.75;5.95;;;19.20;96.10;;;;;;5029851;28;20040;-66
2021/07/23 03:38:17;;;;;;;8.23;6.32;;;19.20;96.20;;;;;;5031411;28;20050;-67
2021/07/23 03:40:42;;;;;;;8.35;5.85;;;19.20;96.30;;;;;;5012554;28;20038;-67
2021/07/23 03:43:09;;;;;;;9.82;5.90;;;19.10;96.40;;;;;;5031466;28;20030;-67
2021/07/23 03:45:34;;;;;;;7.30;5.55;;;19.10;96.50;;;;;;5030113;28;20072;-67
2021/07/23 03:48:00;;;;;;;7.43;5.40;;;19.20;96.50;;;;;;5012796;28;20034;-67
2021/07/23 03:50:25;;;;;;;7.47;5.70;;;19.20;96.40;;;;;;5033136;28;20475;-66
2021/07/23 03:52:51;;;;;;;8.73;5.80;;;19.30;96.30;;;;;;5033645;28;20052;-67
2021/07/23 03:55:17;;;;;;;10.40;5.80;;;19.20;96.30;;;;;;5034299;28;20498;-66
2021/07/23 03:57:42;;;;;;;8.30;6.28;;;19.10;96.40;;;;;;5033720;28;20359;-66
2021/07/23 04:00:09;;;;;;;6.68;5.72;;;19.10;96.40;;;;;;5034034;28;20033;-67
2021/07/23 04:02:37;;;;;;;9.95;6.25;;;19.10;96.60;;;;;;5033159;28;20033;-70
2021/07/23 04:05:04;;;;;;;7.15;5.40;;;19.00;96.60;;;;;;5000060;28;20439;-66
2021/07/23 04:07:33;;;;;;;7.88;5.60;;;19.10;96.70;;;;;;5034127;28;20033;-66
2021/07/23 04:10:00;;;;;;;13.13;5.63;;;19.10;96.70;;;;;;5016127;28;20026;-66
2021/07/23 04:12:25;;;;;;;11.88;6.20;;;19.10;96.70;;;;;;5034587;28;20118;-66
2021/07/23 04:14:51;;;;;;;6.90;5.68;;;19.10;96.70;;;;;;5015976;28;20033;-67
2021/07/23 04:17:17;;;;;;;10.30;6.72;;;19.10;96.70;;;;;;5016435;28;20029;-67
2021/07/23 04:19:42;;;;;;;9.98;5.72;;;19.10;96.60;;;;;;5033797;28;20409;-66
2021/07/23 04:22:08;;;;;;;10.18;6.85;;;19.20;96.80;;;;;;5033923;28;20044;-67
2021/07/23 04:24:34;;;;;;;8.35;6.07;;;19.00;97.00;;;;;;5033881;28;20029;-67
2021/07/23 04:26:59;;;;;;;10.50;6.38;;;19.10;97.10;;;;;;5016002;28;20140;-67
2021/07/23 04:29:25;;;;;;;8.55;6.05;;;19.10;97.10;;;;;;5033494;28;20030;-66
2021/07/23 04:31:51;;;;;;;11.75;6.47;;;19.10;97.20;;;;;;5042351;28;20052;-70
2021/07/23 04:34:17;;;;;;;9.60;6.40;;;19.10;97.30;;;;;;5046951;28;20343;-68
2021/07/23 04:36:42;;;;;;;9.65;6.32;;;19.00;97.30;;;;;;5042146;28;20060;-66
2021/07/23 04:39:08;;;;;;;9.43;6.90;;;19.00;97.40;;;;;;5041609;28;20055;-66
2021/07/23 04:41:34;;;;;;;13.32;6.80;;;19.00;97.60;;;;;;5042582;28;20032;-67
2021/07/23 04:44:00;;;;;;;10.73;6.30;;;18.90;97.80;;;;;;5027114;28;20033;-67
2021/07/23 04:46:25;;;;;;;10.75;6.57;;;18.90;97.80;;;;;;5038652;28;20071;-67
2021/07/23 04:48:51;;;;;;;8.52;5.93;;;19.10;97.70;;;;;;5020774;28;20025;-66
2021/07/23 04:51:17;;;;;;;8.00;6.32;;;19.00;97.80;;;;;;5044103;28;20490;-68
2021/07/23 04:53:42;;;;;;;10.50;7.13;;;19.10;97.80;;;;;;5024947;28;20021;-67
2021/07/23 04:56:08;;;;;;;8.52;6.05;;;19.00;97.90;;;;;;5057788;28;20048;-67
2021/07/23 04:58:34;;;;;;;8.32;6.38;;;18.90;98.00;;;;;;5070834;28;20021;-67
2021/07/23 05:01:00;;;;;;;9.10;7.00;;;19.10;97.80;;;;;;5069039;28;20058;-67
2021/07/23 05:03:33;;;;;;;11.23;6.28;;;19.10;97.90;;;;;;5070887;28;20383;-67
2021/07/23 05:06:00;;;;;;;9.52;5.93;;;19.20;97.70;;;;;;5071424;28;20086;-68
2021/07/23 05:08:27;;;;;;;13.38;7.05;;;19.30;97.80;;;;;;5072460;28;20047;-67
2021/07/23 05:10:53;;;;;;;9.40;7.43;;;19.50;97.60;;;;;;5070849;28;20469;-68
2021/07/23 05:13:21;;;;;;;15.27;6.63;;;19.50;97.30;;;;;;5072164;28;20032;-68
2021/07/23 05:15:46;;;;;;;12.10;6.72;;;19.40;97.30;;;;;;5071536;28;20116;-69
2021/07/23 05:18:13;;;;;;;10.38;6.22;;;19.50;97.30;;;;;;5054262;28;20025;-69
2021/07/23 05:20:39;;;;;;;9.52;5.93;;;19.60;97.30;;;;;;5050205;28;20056;-71
2021/07/23 05:23:04;;;;;;;11.80;6.22;;;19.60;97.30;;;;;;5052078;28;20060;-68
2021/07/23 05:25:34;;;;;;;11.95;6.60;;;19.70;97.10;;;;;;5052088;28;20067;-68
2021/07/23 05:28:00;;;;;;;9.70;6.03;;;19.80;96.80;;;;;;5051203;28;20481;-67
2021/07/23 05:30:26;;;;;;;8.45;6.63;;;19.90;96.70;;;;;;5050627;28;20036;-68
2021/07/23 05:32:51;;;;;;;8.40;5.50;;;20.00;96.60;;;;;;5050140;28;20029;-67
2021/07/23 05:35:17;;;;;;;9.75;7.38;;;20.10;96.50;;;;;;5050544;28;20021;-67
2021/07/23 05:37:43;;;;;;;13.00;6.40;;;19.80;96.60;;;;;;5050284;28;20323;-68
2021/07/23 05:40:11;;;;;;;10.48;6.72;;;19.60;97.10;;;;;;5052101;28;20029;-68
2021/07/23 05:42:37;;;;;;;9.57;6.80;;;19.50;97.00;;;;;;5050413;28;20159;-67
2021/07/23 05:45:03;;;;;;;17.58;6.20;;;19.70;97.00;;;;;;5051579;28;20108;-68
2021/07/23 05:47:28;;;;;;;15.52;6.90;;;19.80;96.90;;;;;;5051482;28;20053;-68
2021/07/23 05:49:54;;;;;;;9.95;6.68;;;19.70;96.80;;;;;;5049931;28;20029;-68
2021/07/23 05:52:20;;;;;;;10.05;7.38;;;19.70;96.90;;;;;;5051647;28;20033;-69
2021/07/23 05:54:45;;;;;;;9.88;6.50;;;19.70;97.20;;;;;;5044469;28;20483;-68
2021/07/23 05:57:11;;;;;;;9.25;6.88;;;19.70;97.00;;;;;;5031857;28;20423;-68
2021/07/23 05:59:36;;;;;;;14.43;7.25;;;19.70;97.10;;;;;;5032129;28;20417;-68
2021/07/23 06:02:02;;;;;;;14.57;7.78;;;19.80;97.00;;;;;;5030938;28;20033;-68
2021/07/23 06:04:28;;;;;;;14.27;5.95;;;19.90;97.10;;;;;;5013891;28;20379;-69
2021/07/23 06:06:54;;;;;;;10.43;7.00;;;20.00;96.80;;;;;;5012436;28;20051;-68
2021/07/23 06:09:19;;;;;;;9.45;6.32;;;20.20;96.60;;;;;;5031468;28;20072;-68
2021/07/23 06:11:45;;;;;;;10.25;6.50;;;20.20;96.50;;;;;;5030221;28;20029;-68
2021/07/23 06:14:10;;;;;;;12.75;7.55;;;20.40;96.50;;;;;;5031156;28;20391;-67
2021/07/23 06:16:40;;;;;;;10.57;6.93;;;20.40;96.30;;;;;;5031396;28;20108;-68
2021/07/23 06:19:06;;;;;;;9.30;7.18;;;20.40;96.30;;;;;;5030834;28;20099;-68
2021/07/23 06:21:31;;;;;;;13.27;7.95;;;20.50;96.10;;;;;;5031162;28;20451;-68
2021/07/23 06:23:57;;;;;;;11.38;7.30;;;20.50;96.20;;;;;;5030361;28;20036;-67
2021/07/23 06:26:22;;;;;;;10.07;6.38;;;20.50;96.00;;;;;;5031068;28;20025;-67
2021/07/23 06:28:48;;;;;;;10.75;5.88;;;20.70;95.90;;;;;;5012641;28;20032;-67
2021/07/23 06:31:15;;;;;;;12.70;7.32;;;20.80;95.80;;;;;;5031188;28;20041;-67
2021/07/23 06:33:41;;;;;;;10.63;6.82;;;20.80;95.80;;;;;;5013507;28;20029;-68
2021/07/23 06:36:07;;;;;;;11.77;6.78;;;20.80;96.00;;;;;;5031468;28;20541;-68
2021/07/23 06:38:32;;;;;;;8.95;7.07;;;20.70;96.00;;;;;;5031211;28;20030;-69
2021/07/23 06:40:59;;;;;;;8.57;7.47;;;20.70;96.00;;;;;;5012834;28;20067;-67
2021/07/23 06:43:25;;;;;;;12.70;6.75;;;20.70;95.90;;;;;;5013804;28;20471;-69
2021/07/23 06:45:54;;;;;;;10.90;6.32;;;20.70;96.00;;;;;;5030682;28;20447;-68
2021/07/23 06:48:20;;;;;;;10.27;6.43;;;20.90;96.00;;;;;;5031542;28;20029;-67
2021/07/23 06:50:45;;;;;;;7.15;6.13;;;21.10;95.70;;;;;;5030700;28;20045;-68
2021/07/23 06:53:11;;;;;;;10.68;6.80;;;21.40;95.20;;;;;;5013664;28;20387;-68
2021/07/23 06:55:37;;;;;;;7.57;6.03;;;21.50;94.80;;;;;;5030166;28;20482;-69
2021/07/23 06:58:02;;;;;;;10.88;6.13;;;21.70;94.50;;;;;;5029864;28;20108;-68
2021/07/23 07:00:28;;;;;;;9.13;7.18;;;21.80;94.20;;;;;;5030526;28;20113;-68
2021/07/23 07:02:54;;;;;;;11.48;7.32;;;21.70;94.20;;;;;;5029523;28;20132;-69
2021/07/23 07:05:21;;;;;;;9.68;5.97;;;21.90;94.10;;;;;;5030585;28;20080;-68
2021/07/23 07:07:47;;;;;;;9.40;7.00;;;21.80;94.00;;;;;;5011908;28;20099;-68
2021/07/23 07:10:13;;;;;;;12.13;7.45;;;21.90;94.20;;;;;;5030884;28;20469;-67
2021/07/23 07:12:39;;;;;;;9.60;6.45;;;21.70;94.10;;;;;;5013113;28;20026;-68
2021/07/23 07:15:05;;;;;;;9.48;6.40;;;21.90;94.00;;;;;;5030524;28;20326;-68
2021/07/23 07:17:30;;;;;;;11.02;6.70;;;22.10;93.80;;;;;;5030876;28;20053;-68
2021/07/23 07:19:57;;;;;;;10.38;7.43;;;22.20;93.50;;;;;;5012351;28;20092;-68
2021/07/23 07:22:24;;;;;;;9.18;6.43;;;22.20;93.30;;;;;;5013306;28;20425;-67
2021/07/23 07:24:50;;;;;;;11.75;6.72;;;22.40;93.40;;;;;;5033964;28;20074;-67
2021/07/23 07:27:15;;;;;;;10.25;6.15;;;22.40;93.20;;;;;;5035298;28;20040;-68
2021/07/23 07:29:41;;;;;;;9.35;7.50;;;22.50;93.40;;;;;;5017156;28;20029;-67
2021/07/23 07:32:08;;;;;;;11.57;6.55;;;22.60;93.20;;;;;;5015970;28;20076;-68
2021/07/23 07:34:34;;;;;;;8.68;6.70;;;22.70;93.10;;;;;;5016961;28;20022;-68
2021/07/23 07:37:01;;;;;;;7.47;6.10;;;22.90;92.90;;;;;;5015307;28;20482;-68
2021/07/23 07:39:27;;;;;;;8.95;6.38;;;22.90;92.40;;;;;;5016768;28;20030;-69
2021/07/23 07:41:53;;;;;;;10.35;6.22;;;23.10;92.60;;;;;;5016059;28;20038;-69
2021/07/23 07:44:18;;;;;;;8.80;5.90;;;23.30;92.20;;;;;;5033966;28;20075;-69
2021/07/23 07:46:44;;;;;;;11.50;6.15;;;23.30;91.70;;;;;;5016398;28;20436;-68
2021/07/23 07:49:09;;;;;;;10.45;6.28;;;23.50;91.30;;;;;;5015612;28;20030;-67
2021/07/23 07:51:35;;;;;;;9.25;6.57;;;23.50;91.40;;;;;;5016098;28;20356;-67
2021/07/23 07:54:01;;;;;;;7.82;6.45;;;23.70;91.20;;;;;;5015409;28;20029;-68
2021/07/23 07:56:26;;;;;;;9.10;6.05;;;24.00;91.10;;;;;;5033807;28;20052;-68
2021/07/23 07:58:52;;;;;;;10.80;5.95;;;24.20;90.60;;;;;;5015659;28;20107;-68
2021/07/23 08:01:18;;;;;;;8.27;6.20;;;24.20;90.20;;;;;;5015600;28;20120;-69
2021/07/23 08:03:43;;;;;;;11.82;6.07;;;24.30;89.50;;;;;;5033826;28;20095;-68
2021/07/23 08:09:08;;;;;;;10.50;5.60;;;24.50;88.50;;;;;;5023414;28;20045;-68
2021/07/23 08:11:35;;;;;;;7.07;5.40;;;24.60;88.00;;;;;;5033614;28;20026;-68
2021/07/23 08:14:01;;;;;;;9.88;5.05;;;24.80;88.10;;;;;;5033062;28;20051;-67
2021/07/23 08:16:27;;;;;;;8.57;5.65;;;25.00;87.10;;;;;;5033689;28;20344;-68
2021/07/23 08:18:53;;;;;;;6.03;5.03;;;25.30;86.70;;;;;;5032923;28;20110;-69
2021/07/23 08:21:18;;;;;;;6.90;5.38;;;25.60;86.20;;;;;;5015559;28;20045;-68
2021/07/23 08:23:44;;;;;;;8.93;6.18;;;25.80;85.60;;;;;;5033249;28;20489;-69
2021/07/23 08:26:09;;;;;;;8.73;6.18;;;26.00;85.10;;;;;;5015043;28;20022;-69
2021/07/23 08:28:36;;;;;;;10.30;5.88;;;26.10;84.40;;;;;;5033038;28;20036;-68
2021/07/23 08:31:02;;;;;;;11.27;6.35;;;26.30;84.60;;;;;;5032563;28;20482;-68
2021/07/23 08:33:28;;;;;;;7.97;5.57;;;26.50;84.40;;;;;;5015470;28;20124;-69
2021/07/23 08:35:54;;;;;;;6.93;5.93;;;26.70;83.60;;;;;;5014428;28;20420;-69
2021/07/23 08:38:21;;;;;;;9.05;6.45;;;26.80;83.00;;;;;;5033849;28;20067;-69
2021/07/23 08:40:46;;;;;;;8.95;6.63;;;26.90;83.40;;;;;;5015394;28;20116;-69
2021/07/23 08:43:12;;;;;;;10.93;5.93;;;27.20;83.20;;;;;;5014673;28;20187;-69
2021/07/23 08:45:38;;;;;;;6.90;5.25;;;27.50;82.70;;;;;;5015633;28;20586;-68
2021/07/23 08:48:05;;;;;;;8.30;5.90;;;27.40;80.80;;;;;;5032053;28;20522;-69
2021/07/23 08:50:31;;;;;;;9.52;5.75;;;27.50;81.70;;;;;;5032432;28;20120;-69
2021/07/23 08:52:57;;;;;;;8.10;5.63;;;27.30;78.60;;;;;;5014749;28;20446;-68
2021/07/23 08:55:24;;;;;;;7.03;5.85;;;27.30;79.20;;;;;;5035017;28;20064;-69
2021/07/23 08:57:51;;;;;;;8.95;8.05;;;27.30;77.20;;;;;;5052764;28;20025;-68
2021/07/23 09:00:23;;;;;;;9.07;6.40;;;26.80;76.60;;;;;;5051476;28;20348;-69
2021/07/23 09:02:54;;;;;;;8.85;5.47;;;27.00;78.40;;;;;;5052964;28;20108;-69
2021/07/23 09:05:41;;;;;;;7.50;5.53;;;27.20;76.80;;;;;;5053221;28;20033;-55
2021/07/23 09:08:07;;;;;;;6.75;4.97;;;27.20;77.30;;;;;;5049596;28;20052;-54
2021/07/23 09:10:34;;;;;;;7.10;5.95;;;26.90;78.20;;;;;;5052444;28;20418;-54
2021/07/23 09:13:03;;;;;;;7.05;5.53;;;26.80;78.60;;;;;;5052143;28;20029;-56
2021/07/23 09:15:37;;;;;;;10.00;5.88;;;27.20;78.50;;;;;;5052337;28;20082;-55
2021/07/23 09:18:19;;;;;;;8.77;4.97;;;27.20;76.10;;;;;;5051400;28;20045;-54
2021/07/23 09:20:55;;;;;;;7.90;5.57;;;27.20;77.10;;;;;;5050436;28;20069;-55
2021/07/23 09:23:33;;;;;;;7.88;5.60;;;27.40;76.50;;;;;;5049440;28;20036;-55
2021/07/23 09:26:17;;;;;;;9.88;4.95;;;27.40;76.40;;;;;;5049112;28;20021;-55
2021/07/23 09:28:47;;;;;;;6.88;5.15;;;27.60;76.20;;;;;;5050038;28;20056;-55
2021/07/23 09:31:21;;;;;;;6.97;5.80;;;27.60;76.30;;;;;;5049433;28;20317;-55
2021/07/23 09:33:51;;;;;;;8.75;5.55;;;27.80;77.10;;;;;;5049812;28;20029;-55
2021/07/23 09:36:17;;;;;;;6.55;5.75;;;27.90;75.70;;;;;;5052810;28;20092;-55
2021/07/23 09:38:44;;;;;;;8.40;5.20;;;28.00;76.00;;;;;;5049285;28;20410;-55
2021/07/23 09:41:29;;;;;;;7.38;5.78;;;28.10;75.50;;;;;;5050492;28;20226;-55
2021/07/23 09:44:04;;;;;;;11.40;7.03;;;28.30;76.60;;;;;;5050004;28;20079;-62
2021/07/23 09:46:42;;;;;;;13.07;6.18;;;28.50;75.40;;;;;;5050431;28;20091;-55
2021/07/23 09:49:26;;;;;;;6.63;5.20;;;28.00;74.30;;;;;;5050964;28;20025;-54
2021/07/23 09:51:57;;;;;;;9.75;6.75;;;28.10;75.30;;;;;;5053587;28;20035;-53
2021/07/23 09:54:23;;;;;;;8.25;6.97;;;28.00;74.20;;;;;;5053406;28;20044;-56
2021/07/23 09:56:50;;;;;;;7.05;6.00;;;28.10;75.10;;;;;;5022270;28;20109;-55
2021/07/23 09:59:32;;;;;;;7.95;7.15;;;28.20;74.00;;;;;;5018871;28;20029;-54
2021/07/23 10:02:02;;;;;;;7.03;6.32;;;28.40;75.00;;;;;;5035777;28;20025;-54
2021/07/23 10:04:38;;;;;;;6.68;5.55;;;28.60;74.10;;;;;;5038442;28;20087;-55
2021/07/23 10:07:10;;;;;;;11.10;7.60;;;28.80;74.00;;;;;;5037283;28;20536;-58
2021/07/23 10:09:39;;;;;;;6.63;5.93;;;28.30;72.80;;;;;;5043035;28;20078;-56
2021/07/23 10:12:09;;;;;;;7.72;5.28;;;28.20;72.70;;;;;;5031078;28;20029;-58
2021/07/23 10:14:39;;;;;;;7.07;5.97;;;28.20;72.60;;;;;;5050115;28;20025;-58
2021/07/23 10:17:05;;;;;;;9.13;5.95;;;28.40;73.40;;;;;;5049056;28;20052;-56
2021/07/23 10:19:31;;;;;;;13.70;7.00;;;28.50;72.80;;;;;;5022604;28;20080;-53
2021/07/23 10:21:58;;;;;;;10.18;6.82;;;28.80;73.70;;;;;;5038504;28;20494;-55
2021/07/23 10:24:30;;;;;;;8.30;7.43;;;29.00;71.90;;;;;;5037636;28;20035;-56
2021/07/23 10:26:57;;;;;;;11.15;5.82;;;29.10;72.80;;;;;;5019939;28;20033;-56
2021/07/23 10:29:42;;;;;;;10.73;6.40;;;29.30;71.90;;;;;;5018075;28;20128;-54
2021/07/23 10:32:23;;;;;;;9.57;6.97;;;29.50;71.10;;;;;;5038714;28;20029;-54
2021/07/23 10:34:49;;;;;;;10.38;6.80;;;29.50;69.80;;;;;;5040778;28;20029;-55
2021/07/23 10:37:32;;;;;;;10.93;6.10;;;29.50;71.10;;;;;;5037390;28;20025;-54
2021/07/23 10:40:13;;;;;;;8.07;5.38;;;29.70;70.30;;;;;;5039017;28;20366;-56
2021/07/23 10:42:43;;;;;;;11.80;9.43;;;29.90;70.00;;;;;;5037630;28;20029;-54
2021/07/23 10:45:16;;;;;;;6.32;5.72;;;29.90;69.30;;;;;;5037312;28;20056;-56
2021/07/23 10:47:46;;;;;;;7.38;5.28;;;30.00;69.20;;;;;;5044664;28;20029;-56
2021/07/23 10:50:22;;;;;;;6.00;5.40;;;30.10;69.50;;;;;;5030455;28;20029;-53
2021/07/23 10:52:49;;;;;;;10.60;7.30;;;30.10;68.80;;;;;;5031635;28;20124;-54
2021/07/23 10:55:27;;;;;;;7.57;6.32;;;29.40;67.30;;;;;;5048660;28;20643;-54
2021/07/23 10:58:05;;;;;;;15.55;8.93;;;29.40;68.30;;;;;;5031657;28;20025;-55
2021/07/23 11:00:55;;;;;;;10.82;7.07;;;29.50;69.10;;;;;;5048492;28;20033;-55
2021/07/23 11:03:43;;;;;;;11.13;7.88;;;29.70;68.70;;;;;;5030778;28;20048;-54
2021/07/23 11:06:20;;;;;;;8.82;6.57;;;29.50;67.00;;;;;;5049421;28;20403;-54
2021/07/23 11:08:47;;;;;;;13.98;9.65;;;29.70;67.20;;;;;;5050061;28;20033;-55
2021/07/23 11:11:14;;;;;;;8.65;6.30;;;29.50;67.80;;;;;;5049468;28;20100;-55
2021/07/23 11:13:41;;;;;;;9.38;6.38;;;29.40;67.80;;;;;;5031930;28;20025;-55
2021/07/23 11:16:18;;;;;;;7.97;6.32;;;29.60;67.60;;;;;;5048966;28;20126;-54
2021/07/23 11:18:54;;;;;;;10.13;7.38;;;29.60;66.40;;;;;;5043277;28;20534;-57
2021/07/23 11:21:21;;;;;;;8.20;6.65;;;29.50;65.80;;;;;;5039199;28;20044;-58
2021/07/23 11:23:48;;;;;;;14.68;6.63;;;29.60;67.20;;;;;;5033991;28;20102;-54
2021/07/23 11:26:23;;;;;;;7.78;7.03;;;29.60;67.10;;;;;;5018504;28;20064;-56
2021/07/23 11:28:53;;;;;;;9.73;6.68;;;29.80;66.70;;;;;;5021738;28;20035;-57
2021/07/23 11:31:32;;;;;;;10.30;7.03;;;29.50;66.80;;;;;;5020738;28;20084;-56
2021/07/23 11:34:18;;;;;;;7.63;5.70;;;29.70;66.40;;;;;;5021485;28;20036;-61
2021/07/23 11:36:45;;;;;;;8.88;6.70;;;29.90;66.20;;;;;;5039727;28;20047;-75
2021/07/23 11:39:11;;;;;;;8.88;6.18;;;30.30;67.60;;;;;;5038125;28;20468;-75
2021/07/23 11:41:55;;;;;;;11.65;6.22;;;30.50;66.00;;;;;;5049373;28;20040;-73
2021/07/23 11:44:21;;;;;;;12.57;8.68;;;30.30;64.10;;;;;;5031491;28;20029;-74
2021/07/23 11:46:46;;;;;;;11.55;6.68;;;30.50;65.30;;;;;;5049814;28;20032;-75
2021/07/23 11:49:12;;;;;;;9.75;6.50;;;30.90;64.10;;;;;;5031730;28;20357;-74
2021/07/23 11:51:40;;;;;;;7.68;6.03;;;31.00;64.80;;;;;;5050177;28;20031;-74
2021/07/23 11:54:06;;;;;;;8.38;6.82;;;31.30;64.30;;;;;;5049617;28;20025;-75
2021/07/23 11:56:33;;;;;;;8.25;6.28;;;31.40;64.60;;;;;;5050173;28;20148;-76
2021/07/23 11:59:05;;;;;;;12.38;5.90;;;31.60;64.80;;;;;;5031224;28;20159;-74
2021/07/23 12:01:38;;;;;;;10.18;7.28;;;31.50;64.90;;;;;;5032319;28;20064;-74
2021/07/23 12:04:05;;;;;;;10.00;6.55;;;31.40;64.50;;;;;;5031892;28;20021;-73
2021/07/23 12:06:32;;;;;;;9.50;5.82;;;31.40;64.30;;;;;;5050975;28;20074;-73
2021/07/23 12:09:03;;;;;;;9.90;6.45;;;31.60;64.80;;;;;;5032687;28;20070;-74
2021/07/23 12:11:30;;;;;;;8.85;6.85;;;31.70;63.70;;;;;;5036079;28;20040;-75
2021/07/23 12:13:56;;;;;;;8.90;7.28;;;31.40;63.70;;;;;;5035147;28;20121;-75
2021/07/23 12:16:22;;;;;;;11.65;6.88;;;31.10;63.80;;;;;;5053115;28;20025;-75
2021/07/23 12:18:58;;;;;;;7.20;6.43;;;31.20;64.80;;;;;;5052869;28;20021;-74
2021/07/23 12:21:26;;;;;;;7.82;6.47;;;31.40;64.90;;;;;;5035662;28;20457;-74
2021/07/23 12:23:59;;;;;;;7.70;6.65;;;31.30;63.60;;;;;;5053305;28;20050;-74
2021/07/23 12:26:42;;;;;;;7.55;6.68;;;31.00;64.20;;;;;;5035525;28;20021;-74
2021/07/23 12:29:13;;;;;;;8.00;6.30;;;30.60;64.60;;;;;;5052712;28;20335;-74
2021/07/23 12:31:39;;;;;;;8.93;6.05;;;30.40;64.10;;;;;;5034835;28;20105;-75
2021/07/23 12:34:09;;;;;;;11.60;6.50;;;30.10;65.00;;;;;;5034476;28;20361;-75
2021/07/23 12:36:53;;;;;;;;;;;30.00;64.90;;;;;;5035427;28;20350;-74
2021/07/23 12:39:22;;;;;;;12.55;10.55;;;30.10;64.70;;;;;;5034772;28;19905;-74
2021/07/23 12:41:48;;;;;;;11.57;7.05;;;30.10;63.80;;;;;;5052958;28;20029;-74
2021/07/23 12:44:16;;;;;;;8.43;6.30;;;30.30;62.90;;;;;;5034443;28;20020;-76
2021/07/23 12:46:43;;;;;;;10.73;6.50;;;30.50;62.40;;;;;;5053213;28;20052;-75
2021/07/23 12:49:17;;;;;;;8.13;6.80;;;30.80;61.90;;;;;;5034823;28;20023;-75